LFSB METAR :   2017/05/28 14:00 LFSB 281400Z 04004KT 350V080 9999 FEW053CB BKN260 31/14 Q1017 NOSIG

TAF  2017/05/28 12:21 TAF LFSB 281100Z 2812/2912 18004KT CAVOK TEMPO 2812/2820 FEW055CB PROB40 TEMPO 2819/2822 34020G35KT PROB30 TEMPO 2820/2822 3000 TSRA SCT045CB